首页
METAR-TAF:

METAR-TAF

机场 :

蘭斯堡國際機場

太陽城, 南非共和國

纬度: 25-20-01S, 经度: 027-10-24E, 海拔: 1040米

当前天气观测

该预报发布于1小时和23分钟前的01:00 UTC
静风
温度 13°C
湿度 100%
气压 1024 hPa

METAR: FAPN 170100Z AUTO 00000KT //// // ////// 13/13 Q1024

时间: 04:23 (02:23 UTC)


TAF: 丢失

超过4000个机场的气象观测和天气预报(METAR&TAF报告)。

可查询的气象台以黄色和红色小点在地图上表示。

将鼠标移到小点上方,可查看气象台名称。

然后点击查看天气观测和预报。

如需切换地图:点击带黑十字的绿色按钮放大地图;点击带横线的绿色按钮缩小地图;或者点击绿色箭头查看邻近地区的地图。


METAR-TAF: